sensor_id;sensor_type;location;lat;lon;timestamp;P1;durP1;ratioP1;P2;durP2;ratioP2
7076;SDS011;3579;48.956;9.154;2023-05-10T00:00:39;1.60;;;1.50;;
7076;SDS011;3579;48.956;9.154;2023-05-10T00:03:05;1.40;;;1.30;;
7076;SDS011;3579;48.956;9.154;2023-05-10T00:05:31;1.70;;;1.60;;
7076;SDS011;3579;48.956;9.154;2023-05-10T00:07:57;1.70;;;1.60;;
7076;SDS011;3579;48.956;9.154;2023-05-10T00:10:23;1.73;;;1.63;;
7076;SDS011;3579;48.956;9.154;2023-05-10T00:12:49;1.60;;;1.50;;
7076;SDS011;3579;48.956;9.154;2023-05-10T00:15:15;1.50;;;1.40;;
7076;SDS011;3579;48.956;9.154;2023-05-10T00:17:41;1.67;;;1.50;;
7076;SDS011;3579;48.956;9.154;2023-05-10T00:20:07;1.50;;;1.40;;
7076;SDS011;3579;48.956;9.154;2023-05-10T00:22:34;1.57;;;1.47;;
7076;SDS011;3579;48.956;9.154;2023-05-10T00:25:00;1.60;;;1.50;;
7076;SDS011;3579;48.956;9.154;2023-05-10T00:27:26;1.60;;;1.43;;
7076;SDS011;3579;48.956;9.154;2023-05-10T00:29:52;1.50;;;1.40;;
7076;SDS011;3579;48.956;9.154;2023-05-10T00:32:18;1.70;;;1.60;;
7076;SDS011;3579;48.956;9.154;2023-05-10T00:34:44;1.70;;;1.50;;
7076;SDS011;3579;48.956;9.154;2023-05-10T00:37:10;1.60;;;1.50;;
7076;SDS011;3579;48.956;9.154;2023-05-10T00:39:36;1.50;;;1.40;;
7076;SDS011;3579;48.956;9.154;2023-05-10T00:42:02;1.50;;;1.40;;
7076;SDS011;3579;48.956;9.154;2023-05-10T00:44:29;1.50;;;1.40;;
7076;SDS011;3579;48.956;9.154;2023-05-10T00:46:56;1.40;;;1.30;;
7076;SDS011;3579;48.956;9.154;2023-05-10T00:49:23;1.50;;;1.40;;
7076;SDS011;3579;48.956;9.154;2023-05-10T00:51:49;1.60;;;1.50;;
7076;SDS011;3579;48.956;9.154;2023-05-10T00:54:16;1.40;;;1.30;;
7076;SDS011;3579;48.956;9.154;2023-05-10T00:56:41;1.77;;;1.60;;
7076;SDS011;3579;48.956;9.154;2023-05-10T00:59:14;1.20;;;1.10;;
7076;SDS011;3579;48.956;9.154;2023-05-10T01:01:42;1.50;;;1.40;;
7076;SDS011;3579;48.956;9.154;2023-05-10T01:04:11;1.60;;;1.50;;
7076;SDS011;3579;48.956;9.154;2023-05-10T01:06:39;1.50;;;1.40;;
7076;SDS011;3579;48.956;9.154;2023-05-10T01:09:06;1.70;;;1.60;;
7076;SDS011;3579;48.956;9.154;2023-05-10T01:11:33;1.70;;;1.60;;
7076;SDS011;3579;48.956;9.154;2023-05-10T01:14:03;1.60;;;1.50;;
7076;SDS011;3579;48.956;9.154;2023-05-10T01:16:34;1.53;;;1.43;;
7076;SDS011;3579;48.956;9.154;2023-05-10T01:19:06;1.37;;;1.27;;
7076;SDS011;3579;48.956;9.154;2023-05-10T01:25:35;1.50;;;1.40;;
7076;SDS011;3579;48.956;9.154;2023-05-10T01:30:30;1.60;;;1.50;;
7076;SDS011;3579;48.956;9.154;2023-05-10T01:33:20;1.57;;;1.40;;
7076;SDS011;3579;48.956;9.154;2023-05-10T01:36:06;1.50;;;1.40;;
7076;SDS011;3579;48.956;9.154;2023-05-10T01:41:20;1.40;;;1.30;;
7076;SDS011;3579;48.956;9.154;2023-05-10T01:46:43;1.50;;;1.40;;
7076;SDS011;3579;48.956;9.154;2023-05-10T01:49:31;1.53;;;1.43;;
7076;SDS011;3579;48.956;9.154;2023-05-10T01:52:09;1.40;;;1.30;;
7076;SDS011;3579;48.956;9.154;2023-05-10T01:54:53;1.50;;;1.40;;
7076;SDS011;3579;48.956;9.154;2023-05-10T01:57:26;1.50;;;1.40;;
7076;SDS011;3579;48.956;9.154;2023-05-10T01:59:57;1.37;;;1.20;;
7076;SDS011;3579;48.956;9.154;2023-05-10T02:02:24;1.50;;;1.40;;
7076;SDS011;3579;48.956;9.154;2023-05-10T02:04:53;1.40;;;1.30;;
7076;SDS011;3579;48.956;9.154;2023-05-10T02:07:20;1.33;;;1.23;;
7076;SDS011;3579;48.956;9.154;2023-05-10T02:09:48;1.30;;;1.20;;
7076;SDS011;3579;48.956;9.154;2023-05-10T02:12:16;2.90;;;1.50;;
7076;SDS011;3579;48.956;9.154;2023-05-10T02:14:43;1.30;;;1.20;;
7076;SDS011;3579;48.956;9.154;2023-05-10T02:17:10;1.40;;;1.30;;
7076;SDS011;3579;48.956;9.154;2023-05-10T02:19:38;1.43;;;1.33;;
7076;SDS011;3579;48.956;9.154;2023-05-10T02:22:06;1.40;;;1.30;;
7076;SDS011;3579;48.956;9.154;2023-05-10T02:24:34;1.57;;;1.33;;
7076;SDS011;3579;48.956;9.154;2023-05-10T02:27:02;1.40;;;1.30;;
7076;SDS011;3579;48.956;9.154;2023-05-10T02:29:29;1.33;;;1.23;;
7076;SDS011;3579;48.956;9.154;2023-05-10T02:31:57;1.50;;;1.40;;
7076;SDS011;3579;48.956;9.154;2023-05-10T02:34:25;1.40;;;1.30;;
7076;SDS011;3579;48.956;9.154;2023-05-10T02:36:53;1.50;;;1.40;;
7076;SDS011;3579;48.956;9.154;2023-05-10T02:39:20;1.30;;;1.20;;
7076;SDS011;3579;48.956;9.154;2023-05-10T02:41:48;1.40;;;1.30;;
7076;SDS011;3579;48.956;9.154;2023-05-10T02:44:17;1.37;;;1.27;;
7076;SDS011;3579;48.956;9.154;2023-05-10T02:46:44;1.33;;;1.23;;
7076;SDS011;3579;48.956;9.154;2023-05-10T02:49:11;1.50;;;1.40;;
7076;SDS011;3579;48.956;9.154;2023-05-10T02:51:37;1.30;;;1.20;;
7076;SDS011;3579;48.956;9.154;2023-05-10T02:54:20;1.30;;;1.20;;
7076;SDS011;3579;48.956;9.154;2023-05-10T02:56:54;1.40;;;1.30;;
7076;SDS011;3579;48.956;9.154;2023-05-10T02:59:27;1.43;;;1.33;;
7076;SDS011;3579;48.956;9.154;2023-05-10T03:01:53;1.90;;;1.40;;
7076;SDS011;3579;48.956;9.154;2023-05-10T03:04:19;1.43;;;1.33;;
7076;SDS011;3579;48.956;9.154;2023-05-10T03:06:45;1.40;;;1.30;;
7076;SDS011;3579;48.956;9.154;2023-05-10T03:09:12;1.27;;;1.10;;
7076;SDS011;3579;48.956;9.154;2023-05-10T03:17:19;1.40;;;1.30;;
7076;SDS011;3579;48.956;9.154;2023-05-10T03:19:54;1.30;;;1.20;;
7076;SDS011;3579;48.956;9.154;2023-05-10T03:22:37;1.50;;;1.30;;
7076;SDS011;3579;48.956;9.154;2023-05-10T03:25:06;1.33;;;1.23;;
7076;SDS011;3579;48.956;9.154;2023-05-10T03:27:36;1.30;;;1.20;;
7076;SDS011;3579;48.956;9.154;2023-05-10T03:30:05;1.37;;;1.27;;
7076;SDS011;3579;48.956;9.154;2023-05-10T03:32:35;1.40;;;1.30;;
7076;SDS011;3579;48.956;9.154;2023-05-10T03:35:08;1.53;;;1.30;;
7076;SDS011;3579;48.956;9.154;2023-05-10T03:37:35;1.40;;;1.30;;
7076;SDS011;3579;48.956;9.154;2023-05-10T03:40:01;1.30;;;1.20;;
7076;SDS011;3579;48.956;9.154;2023-05-10T03:42:28;1.30;;;1.20;;
7076;SDS011;3579;48.956;9.154;2023-05-10T03:44:54;1.40;;;1.30;;
7076;SDS011;3579;48.956;9.154;2023-05-10T03:47:20;1.30;;;1.20;;
7076;SDS011;3579;48.956;9.154;2023-05-10T03:49:46;1.27;;;1.17;;
7076;SDS011;3579;48.956;9.154;2023-05-10T03:52:12;1.37;;;1.20;;
7076;SDS011;3579;48.956;9.154;2023-05-10T03:54:38;1.30;;;1.20;;
7076;SDS011;3579;48.956;9.154;2023-05-10T03:57:04;1.50;;;1.40;;
7076;SDS011;3579;48.956;9.154;2023-05-10T03:59:30;1.40;;;1.30;;
7076;SDS011;3579;48.956;9.154;2023-05-10T04:01:56;1.30;;;1.20;;
7076;SDS011;3579;48.956;9.154;2023-05-10T04:04:22;1.80;;;1.40;;
7076;SDS011;3579;48.956;9.154;2023-05-10T04:06:48;1.23;;;1.13;;
7076;SDS011;3579;48.956;9.154;2023-05-10T04:09:15;1.30;;;1.20;;
7076;SDS011;3579;48.956;9.154;2023-05-10T04:11:41;1.30;;;1.20;;
7076;SDS011;3579;48.956;9.154;2023-05-10T04:14:08;1.13;;;1.03;;
7076;SDS011;3579;48.956;9.154;2023-05-10T04:16:34;1.23;;;1.13;;
7076;SDS011;3579;48.956;9.154;2023-05-10T04:19:00;1.30;;;1.20;;
7076;SDS011;3579;48.956;9.154;2023-05-10T04:21:26;1.20;;;1.10;;
7076;SDS011;3579;48.956;9.154;2023-05-10T04:23:52;1.10;;;1.00;;
7076;SDS011;3579;48.956;9.154;2023-05-10T04:26:18;1.20;;;1.10;;
7076;SDS011;3579;48.956;9.154;2023-05-10T04:28:44;1.27;;;1.17;;
7076;SDS011;3579;48.956;9.154;2023-05-10T04:31:10;1.20;;;1.10;;
7076;SDS011;3579;48.956;9.154;2023-05-10T04:33:36;1.30;;;1.20;;
7076;SDS011;3579;48.956;9.154;2023-05-10T04:36:03;1.30;;;1.20;;
7076;SDS011;3579;48.956;9.154;2023-05-10T04:38:29;1.40;;;1.30;;
7076;SDS011;3579;48.956;9.154;2023-05-10T04:41:09;1.20;;;1.10;;
7076;SDS011;3579;48.956;9.154;2023-05-10T04:43:36;1.20;;;1.10;;
7076;SDS011;3579;48.956;9.154;2023-05-10T04:46:03;1.30;;;1.20;;
7076;SDS011;3579;48.956;9.154;2023-05-10T04:48:30;1.27;;;1.17;;
7076;SDS011;3579;48.956;9.154;2023-05-10T04:50:56;1.30;;;1.20;;
7076;SDS011;3579;48.956;9.154;2023-05-10T04:53:22;1.30;;;1.20;;
7076;SDS011;3579;48.956;9.154;2023-05-10T04:55:48;1.30;;;1.20;;
7076;SDS011;3579;48.956;9.154;2023-05-10T04:58:14;1.10;;;1.00;;
7076;SDS011;3579;48.956;9.154;2023-05-10T05:00:40;1.20;;;1.10;;
7076;SDS011;3579;48.956;9.154;2023-05-10T05:03:07;1.20;;;1.10;;
7076;SDS011;3579;48.956;9.154;2023-05-10T05:05:33;1.10;;;1.03;;
7076;SDS011;3579;48.956;9.154;2023-05-10T05:07:59;1.20;;;1.10;;
7076;SDS011;3579;48.956;9.154;2023-05-10T05:10:25;1.20;;;1.10;;
7076;SDS011;3579;48.956;9.154;2023-05-10T05:12:51;1.30;;;1.20;;
7076;SDS011;3579;48.956;9.154;2023-05-10T05:15:17;1.30;;;1.20;;
7076;SDS011;3579;48.956;9.154;2023-05-10T05:17:43;1.27;;;1.17;;
7076;SDS011;3579;48.956;9.154;2023-05-10T05:20:10;1.30;;;1.20;;
7076;SDS011;3579;48.956;9.154;2023-05-10T05:22:36;1.30;;;1.20;;
7076;SDS011;3579;48.956;9.154;2023-05-10T05:25:03;1.20;;;1.10;;
7076;SDS011;3579;48.956;9.154;2023-05-10T05:27:29;1.30;;;1.20;;
7076;SDS011;3579;48.956;9.154;2023-05-10T05:29:56;1.20;;;1.10;;
7076;SDS011;3579;48.956;9.154;2023-05-10T05:32:22;1.30;;;1.20;;
7076;SDS011;3579;48.956;9.154;2023-05-10T05:34:49;1.30;;;1.20;;
7076;SDS011;3579;48.956;9.154;2023-05-10T05:37:17;1.20;;;1.10;;
7076;SDS011;3579;48.956;9.154;2023-05-10T05:39:44;1.30;;;1.20;;
7076;SDS011;3579;48.956;9.154;2023-05-10T05:42:10;1.30;;;1.20;;
7076;SDS011;3579;48.956;9.154;2023-05-10T05:44:37;1.33;;;1.23;;
7076;SDS011;3579;48.956;9.154;2023-05-10T05:47:03;1.30;;;1.20;;
7076;SDS011;3579;48.956;9.154;2023-05-10T05:49:30;1.20;;;1.10;;
7076;SDS011;3579;48.956;9.154;2023-05-10T05:51:59;1.20;;;1.10;;
7076;SDS011;3579;48.956;9.154;2023-05-10T05:54:26;1.10;;;1.00;;
7076;SDS011;3579;48.956;9.154;2023-05-10T05:56:55;1.30;;;1.20;;
7076;SDS011;3579;48.956;9.154;2023-05-10T05:59:25;1.27;;;1.17;;
7076;SDS011;3579;48.956;9.154;2023-05-10T06:01:51;1.20;;;1.10;;
7076;SDS011;3579;48.956;9.154;2023-05-10T06:04:18;1.20;;;1.10;;
7076;SDS011;3579;48.956;9.154;2023-05-10T06:06:45;1.20;;;1.10;;
7076;SDS011;3579;48.956;9.154;2023-05-10T06:09:11;1.10;;;1.00;;
7076;SDS011;3579;48.956;9.154;2023-05-10T06:11:37;1.33;;;1.23;;
7076;SDS011;3579;48.956;9.154;2023-05-10T06:14:04;1.20;;;1.10;;
7076;SDS011;3579;48.956;9.154;2023-05-10T06:16:32;1.20;;;1.10;;
7076;SDS011;3579;48.956;9.154;2023-05-10T06:19:01;1.20;;;1.10;;
7076;SDS011;3579;48.956;9.154;2023-05-10T06:21:28;1.10;;;1.00;;
7076;SDS011;3579;48.956;9.154;2023-05-10T06:23:54;1.20;;;1.10;;
7076;SDS011;3579;48.956;9.154;2023-05-10T06:26:20;1.13;;;1.03;;
7076;SDS011;3579;48.956;9.154;2023-05-10T06:28:46;1.30;;;1.20;;
7076;SDS011;3579;48.956;9.154;2023-05-10T06:31:12;1.30;;;1.20;;
7076;SDS011;3579;48.956;9.154;2023-05-10T06:33:38;1.13;;;1.03;;
7076;SDS011;3579;48.956;9.154;2023-05-10T06:36:04;1.20;;;1.10;;
7076;SDS011;3579;48.956;9.154;2023-05-10T06:38:30;1.30;;;1.20;;
7076;SDS011;3579;48.956;9.154;2023-05-10T06:40:56;1.30;;;1.20;;
7076;SDS011;3579;48.956;9.154;2023-05-10T06:43:22;0.93;;;0.93;;
7076;SDS011;3579;48.956;9.154;2023-05-10T06:45:50;1.10;;;1.00;;
7076;SDS011;3579;48.956;9.154;2023-05-10T06:48:16;1.23;;;1.13;;
7076;SDS011;3579;48.956;9.154;2023-05-10T06:50:42;1.30;;;1.20;;
7076;SDS011;3579;48.956;9.154;2023-05-10T06:53:09;1.20;;;1.10;;
7076;SDS011;3579;48.956;9.154;2023-05-10T06:55:35;1.20;;;1.10;;
7076;SDS011;3579;48.956;9.154;2023-05-10T06:58:01;1.00;;;1.00;;
7076;SDS011;3579;48.956;9.154;2023-05-10T07:00:27;1.13;;;1.03;;
7076;SDS011;3579;48.956;9.154;2023-05-10T07:02:53;1.20;;;1.10;;
7076;SDS011;3579;48.956;9.154;2023-05-10T07:05:20;1.20;;;1.10;;
7076;SDS011;3579;48.956;9.154;2023-05-10T07:07:46;1.20;;;1.10;;
7076;SDS011;3579;48.956;9.154;2023-05-10T07:10:12;1.20;;;1.10;;
7076;SDS011;3579;48.956;9.154;2023-05-10T07:12:39;1.20;;;1.10;;
7076;SDS011;3579;48.956;9.154;2023-05-10T07:15:05;1.20;;;1.10;;
7076;SDS011;3579;48.956;9.154;2023-05-10T07:17:32;1.20;;;1.10;;
7076;SDS011;3579;48.956;9.154;2023-05-10T07:19:58;1.10;;;1.00;;
7076;SDS011;3579;48.956;9.154;2023-05-10T07:22:25;1.10;;;1.00;;
7076;SDS011;3579;48.956;9.154;2023-05-10T07:24:51;1.13;;;1.03;;
7076;SDS011;3579;48.956;9.154;2023-05-10T07:27:18;1.23;;;1.13;;
7076;SDS011;3579;48.956;9.154;2023-05-10T07:29:44;1.27;;;1.17;;
7076;SDS011;3579;48.956;9.154;2023-05-10T07:32:10;1.20;;;1.10;;
7076;SDS011;3579;48.956;9.154;2023-05-10T07:34:36;1.33;;;1.23;;
7076;SDS011;3579;48.956;9.154;2023-05-10T07:37:02;1.30;;;1.20;;
7076;SDS011;3579;48.956;9.154;2023-05-10T07:39:28;1.20;;;1.10;;
7076;SDS011;3579;48.956;9.154;2023-05-10T07:41:54;0.80;;;0.80;;
7076;SDS011;3579;48.956;9.154;2023-05-10T07:44:21;1.90;;;1.00;;
7076;SDS011;3579;48.956;9.154;2023-05-10T07:46:47;1.20;;;1.10;;
7076;SDS011;3579;48.956;9.154;2023-05-10T07:49:14;1.13;;;1.03;;
7076;SDS011;3579;48.956;9.154;2023-05-10T07:51:40;1.20;;;1.10;;
7076;SDS011;3579;48.956;9.154;2023-05-10T07:54:07;1.50;;;1.40;;
7076;SDS011;3579;48.956;9.154;2023-05-10T07:56:34;2.20;;;1.10;;
7076;SDS011;3579;48.956;9.154;2023-05-10T07:59:00;0.93;;;0.93;;
7076;SDS011;3579;48.956;9.154;2023-05-10T08:01:32;1.20;;;1.10;;
7076;SDS011;3579;48.956;9.154;2023-05-10T08:03:59;1.10;;;1.00;;
7076;SDS011;3579;48.956;9.154;2023-05-10T08:06:27;1.20;;;1.07;;
7076;SDS011;3579;48.956;9.154;2023-05-10T08:08:55;1.20;;;1.10;;
7076;SDS011;3579;48.956;9.154;2023-05-10T08:11:21;1.00;;;1.00;;
7076;SDS011;3579;48.956;9.154;2023-05-10T08:13:48;1.27;;;1.17;;
7076;SDS011;3579;48.956;9.154;2023-05-10T08:16:15;1.30;;;1.03;;
7076;SDS011;3579;48.956;9.154;2023-05-10T08:18:43;1.17;;;1.07;;
7076;SDS011;3579;48.956;9.154;2023-05-10T08:21:10;1.03;;;1.00;;
7076;SDS011;3579;48.956;9.154;2023-05-10T08:23:36;1.20;;;1.10;;
7076;SDS011;3579;48.956;9.154;2023-05-10T08:26:03;1.00;;;0.90;;
7076;SDS011;3579;48.956;9.154;2023-05-10T08:28:29;0.90;;;0.90;;
7076;SDS011;3579;48.956;9.154;2023-05-10T08:30:55;1.10;;;1.00;;
7076;SDS011;3579;48.956;9.154;2023-05-10T08:33:21;1.13;;;1.00;;
7076;SDS011;3579;48.956;9.154;2023-05-10T08:35:47;1.27;;;1.17;;
7076;SDS011;3579;48.956;9.154;2023-05-10T08:38:13;0.90;;;0.90;;
7076;SDS011;3579;48.956;9.154;2023-05-10T08:40:43;0.90;;;0.90;;
7076;SDS011;3579;48.956;9.154;2023-05-10T08:43:11;1.30;;;1.20;;
7076;SDS011;3579;48.956;9.154;2023-05-10T08:45:44;1.20;;;1.10;;
7076;SDS011;3579;48.956;9.154;2023-05-10T08:48:12;0.90;;;0.90;;
7076;SDS011;3579;48.956;9.154;2023-05-10T08:50:39;0.93;;;0.93;;
7076;SDS011;3579;48.956;9.154;2023-05-10T08:53:11;1.27;;;1.10;;
7076;SDS011;3579;48.956;9.154;2023-05-10T08:55:38;1.10;;;1.00;;
7076;SDS011;3579;48.956;9.154;2023-05-10T08:58:05;0.90;;;0.90;;
7076;SDS011;3579;48.956;9.154;2023-05-10T09:00:32;1.10;;;1.00;;
7076;SDS011;3579;48.956;9.154;2023-05-10T09:02:59;1.20;;;1.10;;
7076;SDS011;3579;48.956;9.154;2023-05-10T09:05:26;2.30;;;1.10;;
7076;SDS011;3579;48.956;9.154;2023-05-10T09:07:52;1.10;;;1.00;;
7076;SDS011;3579;48.956;9.154;2023-05-10T09:10:19;1.03;;;1.00;;
7076;SDS011;3579;48.956;9.154;2023-05-10T09:12:45;0.90;;;0.90;;
7076;SDS011;3579;48.956;9.154;2023-05-10T09:15:14;1.07;;;0.90;;
7076;SDS011;3579;48.956;9.154;2023-05-10T09:17:41;1.40;;;1.00;;
7076;SDS011;3579;48.956;9.154;2023-05-10T09:20:09;0.90;;;0.90;;
7076;SDS011;3579;48.956;9.154;2023-05-10T09:22:35;1.07;;;0.97;;
7076;SDS011;3579;48.956;9.154;2023-05-10T09:25:09;1.10;;;1.00;;
7076;SDS011;3579;48.956;9.154;2023-05-10T09:27:40;1.20;;;1.10;;
7076;SDS011;3579;48.956;9.154;2023-05-10T09:30:10;1.10;;;1.00;;
7076;SDS011;3579;48.956;9.154;2023-05-10T09:32:42;0.97;;;0.97;;
7076;SDS011;3579;48.956;9.154;2023-05-10T09:35:10;1.30;;;1.20;;
7076;SDS011;3579;48.956;9.154;2023-05-10T09:37:40;1.00;;;1.00;;
7076;SDS011;3579;48.956;9.154;2023-05-10T09:40:12;1.10;;;1.00;;
7076;SDS011;3579;48.956;9.154;2023-05-10T09:42:50;1.00;;;1.00;;
7076;SDS011;3579;48.956;9.154;2023-05-10T09:45:22;0.90;;;0.90;;
7076;SDS011;3579;48.956;9.154;2023-05-10T09:47:49;1.03;;;0.97;;
7076;SDS011;3579;48.956;9.154;2023-05-10T09:50:16;1.10;;;1.00;;
7076;SDS011;3579;48.956;9.154;2023-05-10T09:55:19;1.07;;;0.97;;
7076;SDS011;3579;48.956;9.154;2023-05-10T09:57:47;1.13;;;1.07;;
7076;SDS011;3579;48.956;9.154;2023-05-10T10:00:18;1.10;;;1.00;;
7076;SDS011;3579;48.956;9.154;2023-05-10T10:02:48;1.10;;;1.00;;
7076;SDS011;3579;48.956;9.154;2023-05-10T10:05:20;1.00;;;0.93;;
7076;SDS011;3579;48.956;9.154;2023-05-10T10:07:46;0.97;;;0.97;;
7076;SDS011;3579;48.956;9.154;2023-05-10T10:10:14;1.13;;;0.97;;
7076;SDS011;3579;48.956;9.154;2023-05-10T10:12:41;1.00;;;1.00;;
7076;SDS011;3579;48.956;9.154;2023-05-10T10:15:07;1.03;;;1.00;;
7076;SDS011;3579;48.956;9.154;2023-05-10T10:17:35;1.00;;;0.97;;
7076;SDS011;3579;48.956;9.154;2023-05-10T10:20:06;0.93;;;0.90;;
7076;SDS011;3579;48.956;9.154;2023-05-10T10:22:33;1.47;;;0.90;;
7076;SDS011;3579;48.956;9.154;2023-05-10T10:24:59;1.50;;;0.90;;
7076;SDS011;3579;48.956;9.154;2023-05-10T10:28:09;1.00;;;1.00;;
7076;SDS011;3579;48.956;9.154;2023-05-10T10:33:24;1.13;;;0.93;;
7076;SDS011;3579;48.956;9.154;2023-05-10T10:35:54;1.13;;;1.03;;
7076;SDS011;3579;48.956;9.154;2023-05-10T10:38:23;1.00;;;1.00;;
7076;SDS011;3579;48.956;9.154;2023-05-10T10:41:01;1.00;;;1.00;;
7076;SDS011;3579;48.956;9.154;2023-05-10T10:43:28;2.13;;;1.00;;
7076;SDS011;3579;48.956;9.154;2023-05-10T10:48:38;1.50;;;0.93;;
7076;SDS011;3579;48.956;9.154;2023-05-10T10:51:04;1.10;;;1.00;;
7076;SDS011;3579;48.956;9.154;2023-05-10T10:53:31;1.20;;;1.00;;
7076;SDS011;3579;48.956;9.154;2023-05-10T10:56:05;1.20;;;1.07;;
7076;SDS011;3579;48.956;9.154;2023-05-10T10:58:33;1.10;;;1.00;;
7076;SDS011;3579;48.956;9.154;2023-05-10T11:01:15;1.20;;;1.10;;
7076;SDS011;3579;48.956;9.154;2023-05-10T11:06:34;1.17;;;1.07;;
7076;SDS011;3579;48.956;9.154;2023-05-10T11:09:07;1.10;;;1.00;;
7076;SDS011;3579;48.956;9.154;2023-05-10T11:11:35;1.43;;;1.00;;
7076;SDS011;3579;48.956;9.154;2023-05-10T11:14:02;1.00;;;1.00;;
7076;SDS011;3579;48.956;9.154;2023-05-10T11:16:40;0.97;;;0.97;;
7076;SDS011;3579;48.956;9.154;2023-05-10T11:19:09;0.70;;;0.70;;
7076;SDS011;3579;48.956;9.154;2023-05-10T11:24:17;1.00;;;0.90;;
7076;SDS011;3579;48.956;9.154;2023-05-10T11:26:45;1.17;;;1.00;;
7076;SDS011;3579;48.956;9.154;2023-05-10T11:29:14;1.13;;;1.03;;
7076;SDS011;3579;48.956;9.154;2023-05-10T11:31:44;1.17;;;1.03;;
7076;SDS011;3579;48.956;9.154;2023-05-10T11:34:13;1.00;;;0.90;;
7076;SDS011;3579;48.956;9.154;2023-05-10T11:36:52;1.10;;;1.00;;
7076;SDS011;3579;48.956;9.154;2023-05-10T11:39:20;1.20;;;1.10;;
7076;SDS011;3579;48.956;9.154;2023-05-10T11:41:47;0.80;;;0.80;;
7076;SDS011;3579;48.956;9.154;2023-05-10T11:44:14;0.90;;;0.90;;
7076;SDS011;3579;48.956;9.154;2023-05-10T11:46:41;1.00;;;1.00;;
7076;SDS011;3579;48.956;9.154;2023-05-10T11:49:07;1.03;;;0.93;;
7076;SDS011;3579;48.956;9.154;2023-05-10T11:51:34;0.90;;;0.90;;
7076;SDS011;3579;48.956;9.154;2023-05-10T11:54:05;1.10;;;1.00;;
7076;SDS011;3579;48.956;9.154;2023-05-10T11:56:36;0.90;;;0.90;;
7076;SDS011;3579;48.956;9.154;2023-05-10T11:59:03;1.20;;;1.00;;
7076;SDS011;3579;48.956;9.154;2023-05-10T12:01:30;1.33;;;1.10;;
7076;SDS011;3579;48.956;9.154;2023-05-10T12:03:57;0.80;;;0.80;;
7076;SDS011;3579;48.956;9.154;2023-05-10T12:06:29;1.10;;;1.00;;
7076;SDS011;3579;48.956;9.154;2023-05-10T12:08:57;1.10;;;1.00;;
7076;SDS011;3579;48.956;9.154;2023-05-10T12:11:24;1.07;;;1.00;;
7076;SDS011;3579;48.956;9.154;2023-05-10T12:13:52;1.20;;;1.10;;
7076;SDS011;3579;48.956;9.154;2023-05-10T12:16:19;0.97;;;0.93;;
7076;SDS011;3579;48.956;9.154;2023-05-10T12:18:56;0.80;;;0.80;;
7076;SDS011;3579;48.956;9.154;2023-05-10T12:21:23;1.10;;;1.00;;
7076;SDS011;3579;48.956;9.154;2023-05-10T12:23:51;1.63;;;1.00;;
7076;SDS011;3579;48.956;9.154;2023-05-10T12:26:21;1.07;;;0.80;;
7076;SDS011;3579;48.956;9.154;2023-05-10T12:28:48;1.27;;;0.97;;
7076;SDS011;3579;48.956;9.154;2023-05-10T12:31:14;1.63;;;0.90;;
7076;SDS011;3579;48.956;9.154;2023-05-10T12:33:41;0.80;;;0.80;;
7076;SDS011;3579;48.956;9.154;2023-05-10T12:36:12;1.10;;;1.00;;
7076;SDS011;3579;48.956;9.154;2023-05-10T12:38:40;1.00;;;0.90;;
7076;SDS011;3579;48.956;9.154;2023-05-10T12:41:13;1.13;;;1.00;;
7076;SDS011;3579;48.956;9.154;2023-05-10T12:43:41;1.07;;;0.97;;
7076;SDS011;3579;48.956;9.154;2023-05-10T12:46:14;1.33;;;0.93;;
7076;SDS011;3579;48.956;9.154;2023-05-10T12:48:43;1.10;;;1.00;;
7076;SDS011;3579;48.956;9.154;2023-05-10T12:51:09;1.93;;;0.97;;
7076;SDS011;3579;48.956;9.154;2023-05-10T12:53:40;0.90;;;0.90;;
7076;SDS011;3579;48.956;9.154;2023-05-10T12:56:06;0.80;;;0.80;;
7076;SDS011;3579;48.956;9.154;2023-05-10T12:58:32;0.90;;;0.90;;
7076;SDS011;3579;48.956;9.154;2023-05-10T13:00:59;1.10;;;1.00;;
7076;SDS011;3579;48.956;9.154;2023-05-10T13:03:25;1.03;;;0.90;;
7076;SDS011;3579;48.956;9.154;2023-05-10T13:05:51;0.90;;;0.90;;
7076;SDS011;3579;48.956;9.154;2023-05-10T13:08:17;1.10;;;1.00;;
7076;SDS011;3579;48.956;9.154;2023-05-10T13:10:43;1.20;;;1.07;;
7076;SDS011;3579;48.956;9.154;2023-05-10T13:13:09;0.80;;;0.80;;
7076;SDS011;3579;48.956;9.154;2023-05-10T13:15:36;2.40;;;0.90;;
7076;SDS011;3579;48.956;9.154;2023-05-10T13:18:02;0.90;;;0.90;;
7076;SDS011;3579;48.956;9.154;2023-05-10T13:20:28;1.07;;;1.00;;
7076;SDS011;3579;48.956;9.154;2023-05-10T13:22:54;1.43;;;1.00;;
7076;SDS011;3579;48.956;9.154;2023-05-10T13:25:20;1.50;;;0.80;;
7076;SDS011;3579;48.956;9.154;2023-05-10T13:27:46;1.00;;;0.90;;
7076;SDS011;3579;48.956;9.154;2023-05-10T13:30:12;0.90;;;0.90;;
7076;SDS011;3579;48.956;9.154;2023-05-10T13:32:38;1.10;;;1.00;;
7076;SDS011;3579;48.956;9.154;2023-05-10T13:35:04;1.10;;;1.00;;
7076;SDS011;3579;48.956;9.154;2023-05-10T13:37:31;1.23;;;1.00;;
7076;SDS011;3579;48.956;9.154;2023-05-10T13:40:00;1.10;;;1.00;;
7076;SDS011;3579;48.956;9.154;2023-05-10T13:42:27;0.97;;;0.90;;
7076;SDS011;3579;48.956;9.154;2023-05-10T13:44:53;1.13;;;1.00;;
7076;SDS011;3579;48.956;9.154;2023-05-10T13:47:20;1.10;;;1.00;;
7076;SDS011;3579;48.956;9.154;2023-05-10T13:49:47;1.00;;;1.00;;
7076;SDS011;3579;48.956;9.154;2023-05-10T13:52:13;1.00;;;0.97;;
7076;SDS011;3579;48.956;9.154;2023-05-10T13:54:39;1.00;;;0.93;;
7076;SDS011;3579;48.956;9.154;2023-05-10T13:57:05;0.83;;;0.83;;
7076;SDS011;3579;48.956;9.154;2023-05-10T13:59:32;1.20;;;0.90;;
7076;SDS011;3579;48.956;9.154;2023-05-10T14:01:58;1.10;;;1.00;;
7076;SDS011;3579;48.956;9.154;2023-05-10T14:04:24;0.80;;;0.80;;
7076;SDS011;3579;48.956;9.154;2023-05-10T14:06:50;0.90;;;0.90;;
7076;SDS011;3579;48.956;9.154;2023-05-10T14:09:18;2.50;;;1.00;;
7076;SDS011;3579;48.956;9.154;2023-05-10T14:11:44;1.10;;;1.00;;
7076;SDS011;3579;48.956;9.154;2023-05-10T14:14:11;1.10;;;1.00;;
7076;SDS011;3579;48.956;9.154;2023-05-10T14:16:38;1.10;;;1.00;;
7076;SDS011;3579;48.956;9.154;2023-05-10T14:19:07;1.53;;;1.00;;
7076;SDS011;3579;48.956;9.154;2023-05-10T14:21:33;1.27;;;1.00;;
7076;SDS011;3579;48.956;9.154;2023-05-10T14:23:59;1.13;;;1.00;;
7076;SDS011;3579;48.956;9.154;2023-05-10T14:26:25;1.20;;;1.07;;
7076;SDS011;3579;48.956;9.154;2023-05-10T14:28:52;1.20;;;0.90;;
7076;SDS011;3579;48.956;9.154;2023-05-10T14:31:18;0.90;;;0.90;;
7076;SDS011;3579;48.956;9.154;2023-05-10T14:33:46;1.07;;;0.97;;
7076;SDS011;3579;48.956;9.154;2023-05-10T14:36:12;1.27;;;0.90;;
7076;SDS011;3579;48.956;9.154;2023-05-10T14:38:39;0.90;;;0.90;;
7076;SDS011;3579;48.956;9.154;2023-05-10T14:41:05;1.10;;;1.00;;
7076;SDS011;3579;48.956;9.154;2023-05-10T14:43:31;0.80;;;0.80;;
7076;SDS011;3579;48.956;9.154;2023-05-10T14:45:57;1.13;;;0.93;;
7076;SDS011;3579;48.956;9.154;2023-05-10T14:48:23;0.90;;;0.83;;
7076;SDS011;3579;48.956;9.154;2023-05-10T14:50:50;1.07;;;0.97;;
7076;SDS011;3579;48.956;9.154;2023-05-10T14:53:17;0.90;;;0.90;;
7076;SDS011;3579;48.956;9.154;2023-05-10T14:55:43;1.17;;;1.00;;
7076;SDS011;3579;48.956;9.154;2023-05-10T14:58:09;0.90;;;0.90;;
7076;SDS011;3579;48.956;9.154;2023-05-10T15:00:36;0.80;;;0.80;;
7076;SDS011;3579;48.956;9.154;2023-05-10T15:03:02;1.10;;;1.00;;
7076;SDS011;3579;48.956;9.154;2023-05-10T15:05:29;1.50;;;1.10;;
7076;SDS011;3579;48.956;9.154;2023-05-10T15:07:55;1.00;;;0.90;;
7076;SDS011;3579;48.956;9.154;2023-05-10T15:10:22;0.80;;;0.80;;
7076;SDS011;3579;48.956;9.154;2023-05-10T15:12:48;1.27;;;0.97;;
7076;SDS011;3579;48.956;9.154;2023-05-10T15:15:15;2.43;;;0.93;;
7076;SDS011;3579;48.956;9.154;2023-05-10T15:17:41;0.87;;;0.87;;
7076;SDS011;3579;48.956;9.154;2023-05-10T15:20:08;0.90;;;0.90;;
7076;SDS011;3579;48.956;9.154;2023-05-10T15:22:35;0.90;;;0.90;;
7076;SDS011;3579;48.956;9.154;2023-05-10T15:25:01;1.13;;;0.90;;
7076;SDS011;3579;48.956;9.154;2023-05-10T15:27:27;1.90;;;0.90;;
7076;SDS011;3579;48.956;9.154;2023-05-10T15:29:53;1.00;;;0.90;;
7076;SDS011;3579;48.956;9.154;2023-05-10T15:32:19;1.63;;;0.90;;
7076;SDS011;3579;48.956;9.154;2023-05-10T15:34:45;1.30;;;1.07;;
7076;SDS011;3579;48.956;9.154;2023-05-10T15:37:11;1.10;;;1.00;;
7076;SDS011;3579;48.956;9.154;2023-05-10T15:39:37;1.03;;;0.83;;
7076;SDS011;3579;48.956;9.154;2023-05-10T15:42:04;0.83;;;0.80;;
7076;SDS011;3579;48.956;9.154;2023-05-10T15:44:30;0.80;;;0.80;;
7076;SDS011;3579;48.956;9.154;2023-05-10T15:46:56;1.90;;;1.00;;
7076;SDS011;3579;48.956;9.154;2023-05-10T15:49:22;0.77;;;0.77;;